createdAt,value
2022-11-29T00:00:19.944Z,1.02
2022-11-29T00:02:21.768Z,1.00
2022-11-29T00:04:23.593Z,1.11
2022-11-29T00:06:28.275Z,1.05
2022-11-29T00:08:29.952Z,1.03
2022-11-29T00:10:31.804Z,1.11
2022-11-29T00:12:33.780Z,1.18
2022-11-29T00:14:35.486Z,1.08
2022-11-29T00:16:37.286Z,1.05
2022-11-29T00:18:39.061Z,1.00
2022-11-29T00:20:40.751Z,0.92
2022-11-29T00:22:42.522Z,0.86
2022-11-29T00:24:44.729Z,0.90
2022-11-29T00:26:46.870Z,0.88
2022-11-29T00:28:48.621Z,0.93
2022-11-29T00:30:50.390Z,0.95
2022-11-29T00:32:52.171Z,0.98
2022-11-29T00:34:54.142Z,1.01
2022-11-29T00:36:55.919Z,0.99
2022-11-29T00:38:58.634Z,0.88
2022-11-29T00:41:00.495Z,0.87
2022-11-29T00:43:02.412Z,0.86
2022-11-29T00:45:04.521Z,0.89
2022-11-29T00:47:06.525Z,0.87
2022-11-29T00:49:08.545Z,0.93
2022-11-29T00:51:10.379Z,1.00
2022-11-29T00:53:12.121Z,0.96
2022-11-29T00:55:13.979Z,0.99
2022-11-29T00:57:15.683Z,0.96
2022-11-29T00:59:17.590Z,0.81
2022-11-29T01:01:19.345Z,1.02
2022-11-29T01:03:21.793Z,1.01
2022-11-29T01:05:23.740Z,1.06
2022-11-29T01:07:25.688Z,1.06
2022-11-29T01:09:27.470Z,0.99
2022-11-29T01:11:29.427Z,1.09
2022-11-29T01:13:31.504Z,1.11
2022-11-29T01:15:33.486Z,1.08
2022-11-29T01:17:36.166Z,1.08
2022-11-29T01:19:38.894Z,1.04
2022-11-29T01:21:40.605Z,1.16
2022-11-29T01:23:43.843Z,1.04
2022-11-29T01:25:45.527Z,0.92
2022-11-29T01:27:47.713Z,0.93
2022-11-29T01:29:49.626Z,1.01
2022-11-29T01:31:51.440Z,1.04
2022-11-29T01:33:54.884Z,1.08
2022-11-29T01:35:56.865Z,1.09
2022-11-29T01:37:58.562Z,1.02
2022-11-29T01:40:00.313Z,1.13
2022-11-29T01:42:02.170Z,1.05
2022-11-29T01:44:13.022Z,1.12
2022-11-29T01:46:14.778Z,1.09
2022-11-29T01:48:18.369Z,1.13
2022-11-29T01:50:20.354Z,1.09
2022-11-29T01:52:28.519Z,1.00
2022-11-29T01:54:31.733Z,1.03
2022-11-29T01:56:34.747Z,1.15
2022-11-29T01:58:36.666Z,1.12
2022-11-29T02:00:38.665Z,1.15
2022-11-29T02:02:49.452Z,1.21
2022-11-29T02:04:51.614Z,1.28
2022-11-29T02:06:53.483Z,1.15
2022-11-29T02:08:55.632Z,1.18
2022-11-29T02:11:19.771Z,1.18
2022-11-29T02:13:27.197Z,1.03
2022-11-29T02:15:46.722Z,1.11
2022-11-29T02:18:20.829Z,1.14
2022-11-29T02:21:03.178Z,1.00
2022-11-29T02:23:13.784Z,1.00
2022-11-29T02:25:24.431Z,0.93
2022-11-29T02:28:01.446Z,1.14
2022-11-29T02:30:21.470Z,1.02
2022-11-29T02:32:47.673Z,0.94
2022-11-29T02:34:58.076Z,1.06
2022-11-29T02:37:28.243Z,1.10
2022-11-29T02:39:47.922Z,1.19
2022-11-29T02:42:07.577Z,1.22
2022-11-29T02:44:27.903Z,1.16
2022-11-29T02:46:42.272Z,1.09
2022-11-29T02:49:02.840Z,1.02
2022-11-29T02:51:35.327Z,1.13
2022-11-29T02:53:52.396Z,1.07
2022-11-29T02:56:17.148Z,1.10
2022-11-29T02:58:27.909Z,1.17
2022-11-29T03:00:30.647Z,1.18
2022-11-29T03:02:51.245Z,1.10
2022-11-29T03:05:09.285Z,1.20
2022-11-29T03:07:32.785Z,1.24
2022-11-29T03:10:04.003Z,1.15
2022-11-29T03:12:20.537Z,1.17
2022-11-29T03:14:47.598Z,1.07
2022-11-29T03:17:22.879Z,1.08
2022-11-29T03:19:39.832Z,1.13
2022-11-29T03:21:52.748Z,1.13
2022-11-29T03:23:58.906Z,0.98
2022-11-29T03:26:25.632Z,1.06
2022-11-29T03:28:30.009Z,1.04
2022-11-29T03:30:35.969Z,1.03
2022-11-29T03:32:54.480Z,1.18
2022-11-29T03:35:05.002Z,1.10
2022-11-29T03:37:15.840Z,1.07
2022-11-29T03:39:46.749Z,1.17
2022-11-29T03:42:03.394Z,1.10
2022-11-29T03:44:17.788Z,1.08
2022-11-29T03:46:50.476Z,1.18
2022-11-29T03:48:59.561Z,0.86
2022-11-29T03:51:17.925Z,1.11
2022-11-29T03:53:34.487Z,1.18
2022-11-29T03:55:57.245Z,1.16
2022-11-29T03:58:11.466Z,1.13
2022-11-29T04:00:13.958Z,1.01
2022-11-29T04:02:49.468Z,1.26
2022-11-29T04:05:19.790Z,1.22
2022-11-29T04:07:21.489Z,1.23
2022-11-29T04:09:57.187Z,1.27
2022-11-29T04:12:35.919Z,1.24
2022-11-29T04:15:25.919Z,1.08
2022-11-29T04:17:42.736Z,1.15
2022-11-29T04:20:05.598Z,1.13
2022-11-29T04:22:48.899Z,1.19
2022-11-29T04:24:58.843Z,1.25
2022-11-29T04:27:39.757Z,1.25
2022-11-29T04:29:55.925Z,1.20
2022-11-29T04:32:19.097Z,1.14
2022-11-29T04:34:38.800Z,1.20
2022-11-29T04:36:51.802Z,1.05
2022-11-29T04:39:02.458Z,1.18
2022-11-29T04:41:19.089Z,1.13
2022-11-29T04:43:51.855Z,1.08
2022-11-29T04:46:14.646Z,0.97
2022-11-29T04:49:01.721Z,1.27
2022-11-29T04:51:13.200Z,1.29
2022-11-29T04:53:42.877Z,1.28
2022-11-29T04:55:50.222Z,1.21
2022-11-29T04:58:01.559Z,1.01
2022-11-29T05:00:12.049Z,1.33
2022-11-29T05:02:32.548Z,1.31
2022-11-29T05:04:47.048Z,1.27
2022-11-29T05:06:54.355Z,1.19
2022-11-29T05:09:18.809Z,1.29
2022-11-29T05:11:42.121Z,1.27
2022-11-29T05:13:58.792Z,1.36
2022-11-29T05:16:24.749Z,1.20
2022-11-29T05:18:44.770Z,1.08
2022-11-29T05:21:00.355Z,1.01
2022-11-29T05:23:05.345Z,1.02
2022-11-29T05:25:12.696Z,0.95
2022-11-29T05:27:20.012Z,1.02
2022-11-29T05:29:43.553Z,0.95
2022-11-29T05:32:31.497Z,0.92
2022-11-29T05:34:54.988Z,0.99
2022-11-29T05:37:16.595Z,1.05
2022-11-29T05:39:48.968Z,1.09
2022-11-29T05:42:14.826Z,1.05
2022-11-29T05:44:39.005Z,1.02
2022-11-29T05:46:53.537Z,1.00
2022-11-29T05:49:28.740Z,0.93
2022-11-29T05:52:23.563Z,0.90
2022-11-29T05:54:38.020Z,0.96
2022-11-29T05:56:59.113Z,1.00
2022-11-29T05:59:07.674Z,0.86
2022-11-29T06:01:22.211Z,0.89
2022-11-29T06:04:09.144Z,0.90
2022-11-29T06:06:35.047Z,0.85
2022-11-29T06:08:40.410Z,0.87
2022-11-29T06:10:57.645Z,0.97
2022-11-29T06:13:14.563Z,1.05
2022-11-29T06:15:28.147Z,0.94
2022-11-29T06:17:59.973Z,0.97
2022-11-29T06:20:20.371Z,0.89
2022-11-29T06:22:32.138Z,0.91
2022-11-29T06:24:56.008Z,0.91
2022-11-29T06:27:12.771Z,0.85
2022-11-29T06:29:23.037Z,0.89
2022-11-29T06:31:37.826Z,0.90
2022-11-29T06:33:51.359Z,0.84
2022-11-29T06:36:14.429Z,0.90
2022-11-29T06:38:28.523Z,0.97
2022-11-29T06:40:30.760Z,1.04
2022-11-29T06:42:32.530Z,0.99
2022-11-29T06:44:34.508Z,1.12
2022-11-29T06:47:41.147Z,1.10
2022-11-29T06:49:54.556Z,1.01
2022-11-29T06:52:01.936Z,1.18
2022-11-29T06:54:39.818Z,1.06
2022-11-29T06:56:44.946Z,0.99
2022-11-29T06:58:58.908Z,1.00
2022-11-29T07:01:00.665Z,0.89
2022-11-29T07:03:24.274Z,0.96
2022-11-29T07:05:34.321Z,0.95
2022-11-29T07:07:36.481Z,0.89
2022-11-29T07:09:38.410Z,0.98
2022-11-29T07:11:40.749Z,0.85
2022-11-29T07:13:42.780Z,0.99
2022-11-29T07:16:01.814Z,0.96
2022-11-29T07:18:28.565Z,0.92
2022-11-29T07:20:30.510Z,0.88
2022-11-29T07:23:01.484Z,0.91
2022-11-29T07:25:27.774Z,0.95
2022-11-29T07:27:58.911Z,0.95
2022-11-29T07:30:15.727Z,0.88
2022-11-29T07:32:30.182Z,0.94
2022-11-29T07:34:51.019Z,0.88
2022-11-29T07:37:13.223Z,0.84
2022-11-29T07:39:23.884Z,0.82
2022-11-29T07:41:35.077Z,0.87
2022-11-29T07:44:13.868Z,0.94
2022-11-29T07:46:15.644Z,0.83
2022-11-29T07:48:18.202Z,0.86
2022-11-29T07:50:20.608Z,0.94
2022-11-29T07:52:22.446Z,0.92
2022-11-29T07:54:24.594Z,0.89
2022-11-29T07:56:26.329Z,0.94
2022-11-29T07:58:28.077Z,1.01
2022-11-29T08:00:30.075Z,1.07
2022-11-29T08:02:32.380Z,1.00
2022-11-29T08:04:34.199Z,1.11
2022-11-29T08:06:36.264Z,1.19
2022-11-29T08:08:43.676Z,1.21
2022-11-29T08:10:46.158Z,1.20
2022-11-29T08:12:50.300Z,1.28
2022-11-29T08:14:52.022Z,1.14
2022-11-29T08:16:53.719Z,1.09
2022-11-29T08:18:56.685Z,1.18
2022-11-29T08:20:58.424Z,1.02
2022-11-29T08:23:00.300Z,1.02
2022-11-29T08:25:02.775Z,0.76
2022-11-29T08:27:04.513Z,1.10
2022-11-29T08:29:06.240Z,1.11
2022-11-29T08:31:11.631Z,1.03
2022-11-29T08:33:13.343Z,1.19
2022-11-29T08:35:15.685Z,1.16
2022-11-29T08:37:17.672Z,1.10
2022-11-29T08:39:19.349Z,1.06
2022-11-29T08:41:21.031Z,1.09
2022-11-29T08:43:23.202Z,1.23
2022-11-29T08:45:24.955Z,1.12
2022-11-29T08:47:26.696Z,1.04
2022-11-29T08:49:28.743Z,1.32
2022-11-29T08:51:30.423Z,1.31
2022-11-29T08:53:32.404Z,1.25
2022-11-29T08:55:40.123Z,1.12
2022-11-29T08:57:41.854Z,1.09
2022-11-29T08:59:43.553Z,1.17
2022-11-29T09:01:45.786Z,1.17
2022-11-29T09:03:47.506Z,1.11
2022-11-29T09:05:49.507Z,1.11
2022-11-29T09:07:51.716Z,1.09
2022-11-29T09:09:53.484Z,1.06
2022-11-29T09:11:55.188Z,1.00
2022-11-29T09:13:59.690Z,1.19
2022-11-29T09:16:07.212Z,1.23
2022-11-29T09:18:09.201Z,1.14
2022-11-29T09:20:11.502Z,1.02
2022-11-29T09:22:13.223Z,1.05
2022-11-29T09:24:14.973Z,1.04
2022-11-29T09:26:18.988Z,1.08
2022-11-29T09:28:20.682Z,1.14
2022-11-29T09:30:23.895Z,1.10
2022-11-29T09:32:26.095Z,1.30
2022-11-29T09:34:27.851Z,1.11
2022-11-29T09:36:30.577Z,1.14
2022-11-29T09:38:33.849Z,1.10
2022-11-29T09:40:42.491Z,1.03
2022-11-29T09:43:06.382Z,1.14
2022-11-29T09:45:15.072Z,0.99
2022-11-29T09:47:35.140Z,1.13
2022-11-29T09:49:46.132Z,1.10
2022-11-29T09:52:38.550Z,1.13
2022-11-29T09:55:17.354Z,1.28
2022-11-29T09:57:19.912Z,1.09
2022-11-29T09:59:29.329Z,1.05
2022-11-29T10:02:04.655Z,1.19
2022-11-29T10:04:14.000Z,1.06
2022-11-29T10:06:28.006Z,1.07
2022-11-29T10:08:29.522Z,1.08
2022-11-29T10:10:40.740Z,1.24
2022-11-29T10:13:15.842Z,1.32
2022-11-29T10:15:27.210Z,1.23
2022-11-29T10:17:40.694Z,1.46
2022-11-29T10:19:51.403Z,1.27
2022-11-29T10:22:00.794Z,1.25
2022-11-29T10:24:13.379Z,1.06
2022-11-29T10:26:15.364Z,1.06
2022-11-29T10:28:19.978Z,1.24
2022-11-29T10:30:22.073Z,1.34
2022-11-29T10:32:25.786Z,1.37
2022-11-29T10:34:31.301Z,1.25
2022-11-29T10:37:00.081Z,1.33
2022-11-29T10:39:14.737Z,1.43
2022-11-29T10:41:21.104Z,1.42
2022-11-29T10:43:25.133Z,1.33
2022-11-29T10:45:56.611Z,1.33
2022-11-29T10:48:04.001Z,1.22
2022-11-29T10:50:06.342Z,1.39
2022-11-29T10:52:20.158Z,1.35
2022-11-29T10:54:42.449Z,1.57
2022-11-29T10:56:45.651Z,1.41
2022-11-29T10:59:24.377Z,1.52
2022-11-29T11:01:26.376Z,1.57
2022-11-29T11:03:31.260Z,1.72
2022-11-29T11:05:33.089Z,1.76
2022-11-29T11:07:35.911Z,1.63
2022-11-29T11:09:48.652Z,1.69
2022-11-29T11:12:03.048Z,1.58
2022-11-29T11:14:28.030Z,1.68
2022-11-29T11:16:35.616Z,1.56
2022-11-29T11:18:39.186Z,1.59
2022-11-29T11:20:42.281Z,1.60
2022-11-29T11:22:44.181Z,1.53
2022-11-29T11:24:46.363Z,1.58
2022-11-29T11:26:48.457Z,1.67
2022-11-29T11:28:58.811Z,1.76
2022-11-29T11:31:04.991Z,1.82
2022-11-29T11:33:09.399Z,1.89
2022-11-29T11:35:23.674Z,1.88
2022-11-29T11:37:31.111Z,1.92
2022-11-29T11:39:32.792Z,1.86
2022-11-29T11:41:42.375Z,1.70
2022-11-29T11:43:59.916Z,1.81
2022-11-29T11:46:02.044Z,1.77
2022-11-29T11:48:15.836Z,1.99
2022-11-29T11:50:40.941Z,1.92
2022-11-29T11:52:50.896Z,1.86
2022-11-29T11:54:59.768Z,1.86
2022-11-29T11:57:01.574Z,2.06
2022-11-29T11:59:04.212Z,2.05
2022-11-29T12:01:12.138Z,1.88
2022-11-29T12:03:26.213Z,1.82
2022-11-29T12:05:27.815Z,1.82
2022-11-29T12:08:09.858Z,1.84
2022-11-29T12:10:20.637Z,1.97
2022-11-29T12:12:33.204Z,1.72
2022-11-29T12:14:44.992Z,1.80
2022-11-29T12:16:50.954Z,1.81
2022-11-29T12:18:59.420Z,1.99
2022-11-29T12:21:10.167Z,1.91
2022-11-29T12:23:11.943Z,1.94
2022-11-29T12:25:19.470Z,2.00
2022-11-29T12:27:21.391Z,1.94
2022-11-29T12:29:26.957Z,1.85
2022-11-29T12:31:50.573Z,1.99
2022-11-29T12:34:13.788Z,2.16
2022-11-29T12:36:41.914Z,2.09
2022-11-29T12:39:14.321Z,2.00
2022-11-29T12:41:18.798Z,2.05
2022-11-29T12:43:30.391Z,2.20
2022-11-29T12:45:32.321Z,2.10
2022-11-29T12:48:02.515Z,2.05
2022-11-29T12:50:39.287Z,2.19
2022-11-29T12:52:47.398Z,2.17
2022-11-29T12:55:21.346Z,2.13
2022-11-29T12:57:45.026Z,2.18
2022-11-29T13:00:07.586Z,2.08
2022-11-29T13:02:12.298Z,2.13
2022-11-29T13:04:23.278Z,2.14
2022-11-29T13:06:49.593Z,2.05
2022-11-29T13:09:11.261Z,2.16
2022-11-29T13:11:19.364Z,2.06
2022-11-29T13:13:45.794Z,2.09
2022-11-29T13:16:30.880Z,1.99
2022-11-29T13:18:39.987Z,2.16
2022-11-29T13:20:47.478Z,2.26
2022-11-29T13:22:57.904Z,2.10
2022-11-29T13:25:03.402Z,2.04
2022-11-29T13:27:06.656Z,2.22
2022-11-29T13:29:15.237Z,2.32
2022-11-29T13:31:22.220Z,2.22
2022-11-29T13:33:42.083Z,2.30
2022-11-29T13:35:50.895Z,2.29
2022-11-29T13:37:57.884Z,2.27
2022-11-29T13:40:19.063Z,2.13
2022-11-29T13:42:36.995Z,2.02
2022-11-29T13:44:47.170Z,2.04
2022-11-29T13:47:07.391Z,2.13
2022-11-29T13:49:22.151Z,2.13
2022-11-29T13:51:28.709Z,2.15
2022-11-29T13:53:48.513Z,2.33
2022-11-29T13:55:58.562Z,2.26
2022-11-29T13:58:19.579Z,2.32
2022-11-29T14:00:28.743Z,2.14
2022-11-29T14:02:31.638Z,2.19
2022-11-29T14:04:37.598Z,2.26
2022-11-29T14:06:40.736Z,2.21
2022-11-29T14:09:18.919Z,2.06
2022-11-29T14:11:31.547Z,2.17
2022-11-29T14:13:42.455Z,2.13
2022-11-29T14:15:44.934Z,2.20
2022-11-29T14:17:58.292Z,2.04
2022-11-29T14:20:25.100Z,2.19
2022-11-29T14:22:27.132Z,2.18
2022-11-29T14:24:34.665Z,2.09
2022-11-29T14:26:36.446Z,2.09
2022-11-29T14:28:39.593Z,1.88
2022-11-29T14:30:44.260Z,1.79
2022-11-29T14:33:13.486Z,1.81
2022-11-29T14:35:32.590Z,1.82
2022-11-29T14:37:52.017Z,1.82
2022-11-29T14:39:57.725Z,1.94
2022-11-29T14:42:14.882Z,2.04
2022-11-29T14:44:28.471Z,1.84
2022-11-29T14:46:32.674Z,1.79
2022-11-29T14:48:35.280Z,1.77
2022-11-29T14:50:47.658Z,1.98
2022-11-29T14:52:55.591Z,1.78
2022-11-29T14:55:11.572Z,1.82
2022-11-29T14:57:47.331Z,1.79
2022-11-29T14:59:54.034Z,1.67
2022-11-29T15:01:56.761Z,1.78
2022-11-29T15:04:05.643Z,1.87
2022-11-29T15:06:25.087Z,1.73
2022-11-29T15:08:26.819Z,1.90
2022-11-29T15:10:33.703Z,1.85
2022-11-29T15:12:37.844Z,1.74
2022-11-29T15:14:56.692Z,1.71
2022-11-29T15:17:04.574Z,1.76
2022-11-29T15:19:38.735Z,1.76
2022-11-29T15:22:15.110Z,1.69
2022-11-29T15:24:17.967Z,1.78
2022-11-29T15:26:21.171Z,1.71
2022-11-29T15:28:28.219Z,1.82
2022-11-29T15:30:31.579Z,1.80
2022-11-29T15:32:33.609Z,1.76
2022-11-29T15:34:40.347Z,1.67
2022-11-29T15:36:43.847Z,1.59
2022-11-29T15:38:56.062Z,1.64
2022-11-29T15:40:57.943Z,1.61
2022-11-29T15:43:34.940Z,1.71
2022-11-29T15:45:39.418Z,1.44
2022-11-29T15:47:41.188Z,1.57
2022-11-29T15:49:43.007Z,1.62
2022-11-29T15:51:49.811Z,1.57
2022-11-29T15:54:12.641Z,1.73
2022-11-29T15:56:22.307Z,1.65
2022-11-29T15:58:27.685Z,1.65
2022-11-29T16:00:30.126Z,1.58
2022-11-29T16:02:34.969Z,1.61
2022-11-29T16:04:46.303Z,1.69
2022-11-29T16:06:49.660Z,1.66
2022-11-29T16:08:52.108Z,1.62
2022-11-29T16:10:54.430Z,1.69
2022-11-29T16:13:02.723Z,1.67
2022-11-29T16:15:05.011Z,1.72
2022-11-29T16:17:08.251Z,1.82
2022-11-29T16:19:30.279Z,1.81
2022-11-29T16:21:32.461Z,1.75
2022-11-29T16:23:41.318Z,1.66
2022-11-29T16:26:05.514Z,1.71
2022-11-29T16:28:12.749Z,1.63
2022-11-29T16:30:26.616Z,1.61
2022-11-29T16:32:34.200Z,1.70
2022-11-29T16:34:36.141Z,1.66
2022-11-29T16:36:37.905Z,1.63
2022-11-29T16:38:45.819Z,1.79
2022-11-29T16:41:21.598Z,1.75
2022-11-29T16:43:53.544Z,1.66
2022-11-29T16:46:21.350Z,1.58
2022-11-29T16:48:23.043Z,1.60
2022-11-29T16:50:26.899Z,1.68
2022-11-29T16:52:33.526Z,1.48
2022-11-29T16:54:35.377Z,1.61
2022-11-29T16:56:39.068Z,1.59
2022-11-29T16:59:17.128Z,1.53
2022-11-29T17:01:25.693Z,1.75
2022-11-29T17:03:27.469Z,1.69
2022-11-29T17:05:29.306Z,1.72
2022-11-29T17:07:35.733Z,1.70
2022-11-29T17:09:38.784Z,1.67
2022-11-29T17:11:40.882Z,1.56
2022-11-29T17:13:42.780Z,1.64
2022-11-29T17:15:44.595Z,1.67
2022-11-29T17:17:46.440Z,1.60
2022-11-29T17:19:48.254Z,1.63
2022-11-29T17:21:51.346Z,1.56
2022-11-29T17:23:54.075Z,1.63
2022-11-29T17:25:57.572Z,1.50
2022-11-29T17:27:59.336Z,1.61
2022-11-29T17:30:01.094Z,1.68
2022-11-29T17:32:02.865Z,1.63
2022-11-29T17:34:05.221Z,1.62
2022-11-29T17:36:08.261Z,1.64
2022-11-29T17:38:10.094Z,1.65
2022-11-29T17:40:12.512Z,1.66
2022-11-29T17:42:14.254Z,1.61
2022-11-29T17:44:16.197Z,1.63
2022-11-29T17:46:27.484Z,1.67
2022-11-29T17:48:33.383Z,1.62
2022-11-29T17:50:37.997Z,1.64
2022-11-29T17:52:42.296Z,1.71
2022-11-29T17:54:44.023Z,1.63
2022-11-29T17:56:45.879Z,1.61
2022-11-29T17:58:51.719Z,1.60
2022-11-29T18:00:53.467Z,1.60
2022-11-29T18:02:55.418Z,1.64
2022-11-29T18:04:57.415Z,1.55
2022-11-29T18:06:59.394Z,1.51
2022-11-29T18:09:01.975Z,1.58
2022-11-29T18:11:11.930Z,1.61
2022-11-29T18:13:13.711Z,1.61
2022-11-29T18:15:15.521Z,1.68
2022-11-29T18:17:17.237Z,1.78
2022-11-29T18:19:21.665Z,1.77
2022-11-29T18:21:23.996Z,1.66
2022-11-29T18:23:27.844Z,1.77
2022-11-29T18:25:38.886Z,1.59
2022-11-29T18:27:41.311Z,1.57
2022-11-29T18:29:43.082Z,1.49
2022-11-29T18:31:45.736Z,1.53
2022-11-29T18:33:49.620Z,1.58
2022-11-29T18:35:51.671Z,1.41
2022-11-29T18:38:17.626Z,1.50
2022-11-29T18:40:15.222Z,1.57
2022-11-29T18:42:16.999Z,1.49
2022-11-29T18:44:20.480Z,1.56
2022-11-29T18:46:22.350Z,1.47
2022-11-29T18:48:24.131Z,1.44
2022-11-29T18:50:25.951Z,1.41
2022-11-29T18:52:27.705Z,1.29
2022-11-29T18:54:29.476Z,1.40
2022-11-29T18:56:34.153Z,1.37
2022-11-29T18:58:36.722Z,1.31
2022-11-29T19:00:38.450Z,1.26
2022-11-29T19:02:40.351Z,1.25
2022-11-29T19:04:42.197Z,1.34
2022-11-29T19:06:44.837Z,1.25
2022-11-29T19:08:47.225Z,1.22
2022-11-29T19:10:48.909Z,1.34
2022-11-29T19:12:50.628Z,1.33
2022-11-29T19:14:52.804Z,1.33
2022-11-29T19:16:54.801Z,1.27
2022-11-29T19:18:59.451Z,1.26
2022-11-29T19:21:08.524Z,1.26
2022-11-29T19:23:10.281Z,1.29
2022-11-29T19:25:11.972Z,1.30
2022-11-29T19:27:13.762Z,1.32
2022-11-29T19:29:16.524Z,1.29
2022-11-29T19:31:20.330Z,1.32
2022-11-29T19:33:22.355Z,1.34
2022-11-29T19:35:24.288Z,1.31
2022-11-29T19:37:26.019Z,1.38
2022-11-29T19:39:27.759Z,1.45
2022-11-29T19:41:32.297Z,1.32
2022-11-29T19:43:34.050Z,1.35
2022-11-29T19:45:39.609Z,1.31
2022-11-29T19:47:41.453Z,1.37
2022-11-29T19:49:46.563Z,1.36
2022-11-29T19:51:48.964Z,1.33
2022-11-29T19:53:55.015Z,1.38
2022-11-29T19:55:56.744Z,1.39
2022-11-29T19:57:58.666Z,1.44
2022-11-29T20:00:00.460Z,1.34
2022-11-29T20:02:02.245Z,1.33
2022-11-29T20:04:04.413Z,1.39
2022-11-29T20:06:06.888Z,1.35
2022-11-29T20:08:08.588Z,1.48
2022-11-29T20:10:10.690Z,1.64
2022-11-29T20:12:12.448Z,1.55
2022-11-29T20:14:14.265Z,1.46
2022-11-29T20:16:17.261Z,1.51
2022-11-29T20:18:18.969Z,1.52
2022-11-29T20:20:20.712Z,1.45
2022-11-29T20:22:22.549Z,1.49
2022-11-29T20:24:24.814Z,1.35
2022-11-29T20:26:27.715Z,1.29
2022-11-29T20:28:29.676Z,1.38
2022-11-29T20:30:31.580Z,1.33
2022-11-29T20:32:34.979Z,1.35
2022-11-29T20:34:37.144Z,1.31
2022-11-29T20:37:00.008Z,1.34
2022-11-29T20:39:10.964Z,1.30
2022-11-29T20:41:18.192Z,1.17
2022-11-29T20:43:34.863Z,1.23
2022-11-29T20:45:36.854Z,1.26
2022-11-29T20:47:56.670Z,1.24
2022-11-29T20:49:58.562Z,1.30
2022-11-29T20:52:05.341Z,1.31
2022-11-29T20:54:07.069Z,1.34
2022-11-29T20:56:10.649Z,1.25
2022-11-29T20:58:12.169Z,1.24
2022-11-29T21:00:22.775Z,1.29
2022-11-29T21:02:24.637Z,1.33
2022-11-29T21:04:26.471Z,1.23
2022-11-29T21:06:28.203Z,1.13
2022-11-29T21:08:30.054Z,1.31
2022-11-29T21:10:31.826Z,1.39
2022-11-29T21:12:33.851Z,1.30
2022-11-29T21:14:36.250Z,1.48
2022-11-29T21:16:38.273Z,1.30
2022-11-29T21:18:40.316Z,1.29
2022-11-29T21:20:43.668Z,1.26
2022-11-29T21:23:13.699Z,1.29
2022-11-29T21:25:49.885Z,1.12
2022-11-29T21:27:54.688Z,1.24
2022-11-29T21:29:56.782Z,1.26
2022-11-29T21:31:58.717Z,1.20
2022-11-29T21:34:00.629Z,0.99
2022-11-29T21:36:02.475Z,1.15
2022-11-29T21:38:04.192Z,1.11
2022-11-29T21:40:08.778Z,1.02
2022-11-29T21:42:10.701Z,1.06
2022-11-29T21:44:12.629Z,1.05
2022-11-29T21:46:14.559Z,0.99
2022-11-29T21:48:16.329Z,0.98
2022-11-29T21:50:18.206Z,1.04
2022-11-29T21:52:22.808Z,1.10
2022-11-29T21:54:24.916Z,1.01
2022-11-29T21:56:26.665Z,1.10
2022-11-29T21:58:33.435Z,1.05
2022-11-29T22:00:37.606Z,0.91
2022-11-29T22:02:39.580Z,0.86
2022-11-29T22:04:41.394Z,0.93
2022-11-29T22:06:43.367Z,0.95
2022-11-29T22:08:45.255Z,0.94
2022-11-29T22:10:46.949Z,0.80
2022-11-29T22:12:52.233Z,0.75
2022-11-29T22:14:54.579Z,0.80
2022-11-29T22:16:58.627Z,0.86
2022-11-29T22:19:00.310Z,0.87
2022-11-29T22:21:06.864Z,0.72
2022-11-29T22:23:08.598Z,0.81
2022-11-29T22:25:10.486Z,0.88
2022-11-29T22:27:12.475Z,0.88
2022-11-29T22:29:14.909Z,1.00
2022-11-29T22:31:16.692Z,0.96
2022-11-29T22:33:18.504Z,1.00
2022-11-29T22:35:20.204Z,0.92
2022-11-29T22:37:22.081Z,0.90
2022-11-29T22:39:24.178Z,0.83
2022-11-29T22:41:25.944Z,0.82
2022-11-29T22:43:28.896Z,0.90
2022-11-29T22:45:30.740Z,0.81
2022-11-29T22:47:32.433Z,0.79
2022-11-29T22:49:34.280Z,0.96
2022-11-29T22:51:37.537Z,0.86
2022-11-29T22:53:41.511Z,0.87
2022-11-29T22:55:43.257Z,0.84
2022-11-29T22:57:45.085Z,0.76
2022-11-29T22:59:46.760Z,0.87
2022-11-29T23:01:48.507Z,0.81
2022-11-29T23:03:55.439Z,0.86
2022-11-29T23:06:02.895Z,0.76
2022-11-29T23:08:04.754Z,0.85
2022-11-29T23:10:07.258Z,1.03
2022-11-29T23:12:08.984Z,1.05
2022-11-29T23:14:10.844Z,0.85
2022-11-29T23:16:19.276Z,0.95
2022-11-29T23:18:21.054Z,0.87
2022-11-29T23:20:22.746Z,0.94
2022-11-29T23:22:24.540Z,0.87
2022-11-29T23:24:26.234Z,0.82
2022-11-29T23:26:33.905Z,0.98
2022-11-29T23:28:36.230Z,0.92
2022-11-29T23:30:37.910Z,0.92
2022-11-29T23:32:39.889Z,0.85
2022-11-29T23:34:41.699Z,0.99
2022-11-29T23:36:47.027Z,1.02
2022-11-29T23:38:53.066Z,0.99
2022-11-29T23:40:54.898Z,0.96
2022-11-29T23:42:56.650Z,0.94
2022-11-29T23:44:58.403Z,0.84
2022-11-29T23:47:00.298Z,0.97
2022-11-29T23:49:02.207Z,1.07
2022-11-29T23:51:04.109Z,0.94
2022-11-29T23:53:05.900Z,0.96
2022-11-29T23:55:07.964Z,0.94
2022-11-29T23:57:09.740Z,0.84
2022-11-29T23:59:11.614Z,0.85
